createdAt,value
2024-03-02T00:00:23.526Z,96018.00
2024-03-02T00:02:51.163Z,96016.00
2024-03-02T00:05:23.366Z,96026.00
2024-03-02T00:07:58.834Z,96020.00
2024-03-02T00:10:41.158Z,96014.00
2024-03-02T00:13:09.791Z,96023.00
2024-03-02T00:15:49.386Z,96018.00
2024-03-02T00:18:40.914Z,96023.00
2024-03-02T00:21:11.441Z,96017.00
2024-03-02T00:23:39.712Z,96019.00
2024-03-02T00:26:07.192Z,96021.00
2024-03-02T00:28:38.551Z,96023.00
2024-03-02T00:31:14.130Z,96015.00
2024-03-02T00:33:49.488Z,96010.00
2024-03-02T00:36:28.424Z,96014.00
2024-03-02T00:38:56.107Z,96013.00
2024-03-02T00:41:25.211Z,96018.00
2024-03-02T00:44:09.385Z,96014.00
2024-03-02T00:46:44.971Z,96019.00
2024-03-02T00:49:24.203Z,96005.00
2024-03-02T00:51:53.574Z,96008.00
2024-03-02T00:54:27.166Z,96009.00
2024-03-02T00:56:56.446Z,96013.00
2024-03-02T00:59:24.194Z,96020.00
2024-03-02T01:01:51.816Z,96005.00
2024-03-02T01:04:18.664Z,96009.00
2024-03-02T01:06:45.628Z,96011.00
2024-03-02T01:09:13.669Z,96013.00
2024-03-02T01:11:40.764Z,96012.00
2024-03-02T01:14:07.744Z,96003.00
2024-03-02T01:16:34.570Z,96004.00
2024-03-02T01:19:01.751Z,96003.00
2024-03-02T01:21:28.729Z,96003.00
2024-03-02T01:23:55.587Z,96000.00
2024-03-02T01:26:22.469Z,96003.00
2024-03-02T01:28:49.763Z,96001.00
2024-03-02T01:31:16.624Z,96006.00
2024-03-02T01:33:43.690Z,96006.00
2024-03-02T01:36:10.615Z,96008.00
2024-03-02T01:38:37.462Z,96006.00
2024-03-02T01:41:04.435Z,95998.00
2024-03-02T01:43:31.242Z,96001.00
2024-03-02T01:45:58.540Z,96011.00
2024-03-02T01:48:25.530Z,96009.00
2024-03-02T01:50:52.533Z,96004.00
2024-03-02T01:53:20.005Z,96011.00
2024-03-02T01:55:46.885Z,96007.00
2024-03-02T01:58:13.805Z,96007.00
2024-03-02T02:00:41.011Z,96000.00
2024-03-02T02:03:07.966Z,96010.00
2024-03-02T02:05:36.138Z,95990.00
2024-03-02T02:08:03.190Z,96005.00
2024-03-02T02:10:30.081Z,95995.00
2024-03-02T02:12:57.068Z,96000.00
2024-03-02T02:15:27.417Z,95994.00
2024-03-02T02:17:58.650Z,95987.00
2024-03-02T02:20:26.619Z,95985.00
2024-03-02T02:23:01.322Z,95982.00
2024-03-02T02:25:29.575Z,95992.00
2024-03-02T02:27:58.050Z,95983.00
2024-03-02T02:30:28.408Z,95986.00
2024-03-02T02:32:55.609Z,95980.00
2024-03-02T02:35:23.084Z,95980.00
2024-03-02T02:37:51.717Z,95971.00
2024-03-02T02:40:20.097Z,95985.00
2024-03-02T02:42:47.823Z,95983.00
2024-03-02T02:45:16.110Z,95982.00
2024-03-02T02:47:44.600Z,95973.00
2024-03-02T02:50:13.488Z,95967.00
2024-03-02T02:52:42.332Z,95981.00
2024-03-02T02:55:14.896Z,95985.00
2024-03-02T02:57:44.539Z,95984.00
2024-03-02T03:00:17.950Z,95981.00
2024-03-02T03:02:48.918Z,95981.00
2024-03-02T03:05:16.644Z,95979.00
2024-03-02T03:07:45.294Z,95978.00
2024-03-02T03:10:12.369Z,95976.00
2024-03-02T03:12:39.397Z,95979.00
2024-03-02T03:15:08.035Z,95979.00
2024-03-02T03:17:36.050Z,95983.00
2024-03-02T03:20:05.106Z,95977.00
2024-03-02T03:22:32.968Z,95983.00
2024-03-02T03:25:00.856Z,95975.00
2024-03-02T03:27:28.052Z,95975.00
2024-03-02T03:29:55.502Z,95983.00
2024-03-02T03:32:23.106Z,95979.00
2024-03-02T03:34:50.183Z,95976.00
2024-03-02T03:37:17.080Z,95986.00
2024-03-02T03:39:44.025Z,95982.00
2024-03-02T03:42:10.890Z,95986.00
2024-03-02T03:44:37.824Z,95978.00
2024-03-02T03:47:04.742Z,95980.00
2024-03-02T03:49:31.556Z,95979.00
2024-03-02T03:51:58.571Z,95979.00
2024-03-02T03:54:25.474Z,95978.00
2024-03-02T03:56:52.329Z,95981.00
2024-03-02T03:59:19.177Z,95980.00
2024-03-02T04:01:46.082Z,95991.00
2024-03-02T04:04:12.906Z,95995.00
2024-03-02T04:06:39.885Z,95983.00
2024-03-02T04:09:06.704Z,95993.00
2024-03-02T04:11:33.634Z,95996.00
2024-03-02T04:14:00.569Z,96004.00
2024-03-02T04:16:27.457Z,95998.00
2024-03-02T04:18:54.369Z,96004.00
2024-03-02T04:21:21.396Z,96001.00
2024-03-02T04:23:48.632Z,96003.00
2024-03-02T04:26:20.740Z,96005.00
2024-03-02T04:28:47.736Z,96007.00
2024-03-02T04:31:16.449Z,96007.00
2024-03-02T04:33:43.389Z,96009.00
2024-03-02T04:36:11.133Z,96003.00
2024-03-02T04:38:39.591Z,96010.00
2024-03-02T04:41:07.260Z,96007.00
2024-03-02T04:43:34.783Z,96016.00
2024-03-02T04:46:02.262Z,96011.00
2024-03-02T04:48:29.243Z,96007.00
2024-03-02T04:50:56.108Z,96004.00
2024-03-02T04:53:22.919Z,96005.00
2024-03-02T04:56:08.705Z,96006.00
2024-03-02T04:58:35.529Z,96009.00
2024-03-02T05:01:02.410Z,96016.00
2024-03-02T05:03:29.264Z,96005.00
2024-03-02T05:05:57.131Z,96017.00
2024-03-02T05:08:24.035Z,96018.00
2024-03-02T05:10:50.859Z,96014.00
2024-03-02T05:13:18.720Z,96016.00
2024-03-02T05:15:45.902Z,96029.00
2024-03-02T05:18:12.786Z,96024.00
2024-03-02T05:20:39.650Z,96029.00
2024-03-02T05:23:06.449Z,96036.00
2024-03-02T05:25:33.900Z,96044.00
2024-03-02T05:28:00.828Z,96042.00
2024-03-02T05:30:27.886Z,96040.00
2024-03-02T05:32:54.787Z,96045.00
2024-03-02T05:35:21.696Z,96030.00
2024-03-02T05:37:48.593Z,96035.00
2024-03-02T05:40:15.472Z,96040.00
2024-03-02T05:42:42.697Z,96040.00
2024-03-02T05:45:09.791Z,96028.00
2024-03-02T05:47:36.630Z,96049.00
2024-03-02T05:50:04.948Z,96048.00
2024-03-02T05:52:31.914Z,96049.00
2024-03-02T05:54:58.796Z,96052.00
2024-03-02T05:57:44.355Z,96054.00
2024-03-02T06:00:12.130Z,96061.00
2024-03-02T06:02:42.355Z,96053.00
2024-03-02T06:05:10.082Z,96068.00
2024-03-02T06:07:37.085Z,96074.00
2024-03-02T06:10:04.271Z,96070.00
2024-03-02T06:12:33.538Z,96057.00
2024-03-02T06:15:00.514Z,96057.00
2024-03-02T06:17:27.487Z,96055.00
2024-03-02T06:19:54.381Z,96072.00
2024-03-02T06:22:22.489Z,96076.00
2024-03-02T06:24:49.589Z,96072.00
2024-03-02T06:27:16.588Z,96076.00
2024-03-02T06:29:43.624Z,96069.00
2024-03-02T06:32:10.563Z,96073.00
2024-03-02T06:34:37.518Z,96073.00
2024-03-02T06:37:04.481Z,96070.00
2024-03-02T06:39:32.440Z,96073.00
2024-03-02T06:41:59.297Z,96066.00
2024-03-02T06:44:26.082Z,96067.00
2024-03-02T06:46:53.021Z,96065.00
2024-03-02T06:49:19.824Z,96075.00
2024-03-02T06:51:46.675Z,96076.00
2024-03-02T06:54:13.606Z,96069.00
2024-03-02T06:56:40.446Z,96084.00
2024-03-02T06:59:07.291Z,96083.00
2024-03-02T07:01:34.189Z,96082.00
2024-03-02T07:04:01.117Z,96078.00
2024-03-02T07:06:28.027Z,96086.00
2024-03-02T07:08:54.840Z,96085.00
2024-03-02T07:11:21.789Z,96079.00
2024-03-02T07:13:48.610Z,96088.00
2024-03-02T07:16:33.840Z,96084.00
2024-03-02T07:19:02.456Z,96090.00
2024-03-02T07:21:29.642Z,96086.00
2024-03-02T07:23:56.486Z,96086.00
2024-03-02T07:28:53.917Z,96096.00
2024-03-02T07:31:21.140Z,96101.00
2024-03-02T07:33:48.150Z,96094.00
2024-03-02T07:36:15.474Z,96104.00
2024-03-02T07:38:43.946Z,96103.00
2024-03-02T07:41:12.330Z,96109.00
2024-03-02T07:43:39.498Z,96112.00
2024-03-02T07:46:07.071Z,96110.00
2024-03-02T07:48:34.049Z,96109.00
2024-03-02T07:51:01.387Z,96112.00
2024-03-02T07:53:28.230Z,96119.00
2024-03-02T07:55:55.116Z,96115.00
2024-03-02T07:58:22.503Z,96119.00
2024-03-02T08:00:51.129Z,96120.00
2024-03-02T08:03:19.340Z,96116.00
2024-03-02T08:05:47.181Z,96119.00
2024-03-02T08:08:13.999Z,96121.00
2024-03-02T08:10:40.817Z,96125.00
2024-03-02T08:13:07.791Z,96127.00
2024-03-02T08:15:34.659Z,96146.00
2024-03-02T08:18:01.661Z,96134.00
2024-03-02T08:20:28.675Z,96137.00
2024-03-02T08:22:56.227Z,96139.00
2024-03-02T08:25:23.706Z,96142.00
2024-03-02T08:27:50.679Z,96138.00
2024-03-02T08:30:19.122Z,96153.00
2024-03-02T08:32:48.176Z,96145.00
2024-03-02T08:35:15.186Z,96148.00
2024-03-02T08:37:44.835Z,96147.00
2024-03-02T08:40:15.388Z,96150.00
2024-03-02T08:42:43.622Z,96152.00
2024-03-02T08:45:10.601Z,96158.00
2024-03-02T08:47:37.653Z,96161.00
2024-03-02T08:50:06.171Z,96161.00
2024-03-02T08:52:33.066Z,96154.00
2024-03-02T08:55:00.078Z,96165.00
2024-03-02T08:57:27.100Z,96165.00
2024-03-02T08:59:54.012Z,96170.00
2024-03-02T09:02:21.131Z,96178.00
2024-03-02T09:04:48.092Z,96180.00
2024-03-02T09:07:15.037Z,96180.00
2024-03-02T09:09:42.056Z,96177.00
2024-03-02T09:12:09.327Z,96167.00
2024-03-02T09:14:38.032Z,96173.00
2024-03-02T09:17:05.334Z,96171.00
2024-03-02T09:19:32.296Z,96182.00
2024-03-02T09:21:59.978Z,96161.00
2024-03-02T09:24:27.027Z,96163.00
2024-03-02T09:26:53.917Z,96164.00
2024-03-02T09:29:21.856Z,96155.00
2024-03-02T09:31:48.798Z,96153.00
2024-03-02T09:34:16.888Z,96153.00
2024-03-02T09:36:44.593Z,96151.00
2024-03-02T09:39:11.713Z,96151.00
2024-03-02T09:41:39.650Z,96153.00
2024-03-02T09:44:07.419Z,96144.00
2024-03-02T09:46:34.461Z,96141.00
2024-03-02T09:49:01.445Z,96141.00
2024-03-02T09:51:28.305Z,96141.00
2024-03-02T09:53:58.370Z,96134.00
2024-03-02T09:56:30.403Z,96143.00
2024-03-02T09:58:57.233Z,96131.00
2024-03-02T10:01:24.173Z,96140.00
2024-03-02T10:03:52.300Z,96129.00
2024-03-02T10:06:24.439Z,96137.00
2024-03-02T10:08:51.834Z,96135.00
2024-03-02T10:11:38.072Z,96132.00
2024-03-02T10:14:13.873Z,96131.00
2024-03-02T10:16:43.416Z,96133.00
2024-03-02T10:19:25.225Z,96129.00
2024-03-02T10:21:54.734Z,96124.00
2024-03-02T10:24:23.716Z,96128.00
2024-03-02T10:26:51.183Z,96129.00
2024-03-02T10:29:18.671Z,96131.00
2024-03-02T10:31:47.420Z,96133.00
2024-03-02T10:34:14.795Z,96136.00
2024-03-02T10:36:44.281Z,96136.00
2024-03-02T10:39:11.220Z,96135.00
2024-03-02T10:41:39.758Z,96133.00
2024-03-02T10:44:10.942Z,96128.00
2024-03-02T10:46:39.375Z,96130.00
2024-03-02T10:49:08.731Z,96135.00
2024-03-02T10:51:37.678Z,96135.00
2024-03-02T10:54:06.020Z,96134.00
2024-03-02T10:56:41.627Z,96131.00
2024-03-02T10:59:36.086Z,96133.00
2024-03-02T11:02:06.235Z,96115.00
2024-03-02T11:04:35.946Z,96111.00
2024-03-02T11:07:10.059Z,96112.00
2024-03-02T11:09:48.402Z,96109.00
2024-03-02T11:12:30.582Z,96102.00
2024-03-02T11:14:57.833Z,96100.00
2024-03-02T11:17:26.014Z,96104.00
2024-03-02T11:19:53.734Z,96102.00
2024-03-02T11:22:23.558Z,96099.00
2024-03-02T11:24:52.421Z,96095.00
2024-03-02T11:27:47.436Z,96102.00
2024-03-02T11:30:33.272Z,96101.00
2024-03-02T11:33:09.584Z,96098.00
2024-03-02T11:35:50.083Z,96086.00
2024-03-02T11:38:18.896Z,96080.00
2024-03-02T11:40:46.136Z,96083.00
2024-03-02T11:43:13.563Z,96084.00
2024-03-02T11:45:45.744Z,96083.00
2024-03-02T11:48:16.331Z,96077.00
2024-03-02T11:50:51.762Z,96064.00
2024-03-02T11:53:20.705Z,96072.00
2024-03-02T11:55:48.313Z,96066.00
2024-03-02T11:58:25.320Z,96064.00
2024-03-02T12:00:53.284Z,96064.00
2024-03-02T12:03:27.046Z,96050.00
2024-03-02T12:05:55.292Z,96049.00
2024-03-02T12:08:22.801Z,96044.00
2024-03-02T12:11:04.341Z,96037.00
2024-03-02T12:13:32.406Z,96040.00
2024-03-02T12:16:00.021Z,96038.00
2024-03-02T12:18:27.927Z,96036.00
2024-03-02T12:20:58.925Z,96037.00
2024-03-02T12:23:26.678Z,96028.00
2024-03-02T12:25:54.042Z,96022.00
2024-03-02T12:28:21.170Z,96020.00
2024-03-02T12:30:49.222Z,96023.00
2024-03-02T12:33:16.344Z,96026.00
2024-03-02T12:35:43.745Z,96022.00
2024-03-02T12:38:12.185Z,96021.00
2024-03-02T12:40:39.320Z,96014.00
2024-03-02T12:43:07.891Z,96012.00
2024-03-02T12:45:36.464Z,96004.00
2024-03-02T12:48:05.645Z,96010.00
2024-03-02T12:50:34.371Z,96007.00
2024-03-02T12:53:01.391Z,96006.00
2024-03-02T12:55:30.095Z,96011.00
2024-03-02T12:57:58.242Z,95999.00
2024-03-02T13:00:25.204Z,96000.00
2024-03-02T13:02:53.370Z,96005.00
2024-03-02T13:05:21.324Z,96012.00
2024-03-02T13:07:50.038Z,96003.00
2024-03-02T13:10:19.254Z,96012.00
2024-03-02T13:12:46.675Z,96006.00
2024-03-02T13:15:16.552Z,96007.00
2024-03-02T13:17:47.178Z,96007.00
2024-03-02T13:20:15.570Z,96009.00
2024-03-02T13:22:42.792Z,96002.00
2024-03-02T13:25:11.548Z,95999.00
2024-03-02T13:27:38.685Z,95996.00
2024-03-02T13:30:09.918Z,95998.00
2024-03-02T13:32:36.950Z,95988.00
2024-03-02T13:35:04.325Z,95999.00
2024-03-02T13:37:31.581Z,95994.00
2024-03-02T13:39:58.532Z,95992.00
2024-03-02T13:42:26.066Z,95982.00
2024-03-02T13:44:54.163Z,95988.00
2024-03-02T13:47:22.149Z,95986.00
2024-03-02T13:49:50.067Z,95986.00
2024-03-02T13:52:19.780Z,95984.00
2024-03-02T13:54:48.805Z,95986.00
2024-03-02T13:57:16.233Z,95986.00
2024-03-02T13:59:44.635Z,95983.00
2024-03-02T14:02:13.404Z,95976.00
2024-03-02T14:04:41.048Z,95973.00
2024-03-02T14:07:08.636Z,95970.00
2024-03-02T14:09:36.260Z,95961.00
2024-03-02T14:12:04.028Z,95970.00
2024-03-02T14:14:30.973Z,95964.00
2024-03-02T14:17:01.461Z,95960.00
2024-03-02T14:19:28.604Z,95962.00
2024-03-02T14:21:55.874Z,95961.00
2024-03-02T14:24:26.757Z,95961.00
2024-03-02T14:26:58.423Z,95959.00
2024-03-02T14:29:30.273Z,95961.00
2024-03-02T14:31:57.158Z,95958.00
2024-03-02T14:34:24.215Z,95947.00
2024-03-02T14:36:51.218Z,95944.00
2024-03-02T14:39:20.883Z,95942.00
2024-03-02T14:41:47.842Z,95949.00
2024-03-02T14:44:14.790Z,95937.00
2024-03-02T14:46:42.918Z,95945.00
2024-03-02T14:49:11.923Z,95937.00
2024-03-02T14:51:39.146Z,95941.00
2024-03-02T14:54:06.397Z,95936.00
2024-03-02T14:56:33.581Z,95939.00
2024-03-02T14:59:00.458Z,95934.00
2024-03-02T15:01:27.599Z,95939.00
2024-03-02T15:03:54.780Z,95922.00
2024-03-02T15:06:21.888Z,95919.00
2024-03-02T15:08:49.095Z,95925.00
2024-03-02T15:11:16.460Z,95922.00
2024-03-02T15:13:43.901Z,95916.00
2024-03-02T15:16:10.944Z,95917.00
2024-03-02T15:18:37.991Z,95926.00
2024-03-02T15:21:05.417Z,95917.00
2024-03-02T15:23:32.277Z,95916.00
2024-03-02T15:25:59.299Z,95910.00
2024-03-02T15:28:26.293Z,95916.00
2024-03-02T15:30:55.236Z,95909.00
2024-03-02T15:33:31.944Z,95899.00
2024-03-02T15:36:02.686Z,95892.00
2024-03-02T15:38:34.088Z,95892.00
2024-03-02T15:41:03.497Z,95893.00
2024-03-02T15:43:32.071Z,95889.00
2024-03-02T15:45:59.700Z,95885.00
2024-03-02T15:48:27.290Z,95883.00
2024-03-02T15:50:54.189Z,95890.00
2024-03-02T15:53:21.431Z,95889.00
2024-03-02T15:55:48.323Z,95880.00
2024-03-02T15:58:15.342Z,95889.00
2024-03-02T16:00:42.333Z,95886.00
2024-03-02T16:03:09.367Z,95878.00
2024-03-02T16:05:36.280Z,95886.00
2024-03-02T16:08:03.297Z,95884.00
2024-03-02T16:10:30.134Z,95889.00
2024-03-02T16:13:00.847Z,95895.00
2024-03-02T16:15:29.597Z,95889.00
2024-03-02T16:17:56.814Z,95887.00
2024-03-02T16:20:24.688Z,95889.00
2024-03-02T16:22:51.558Z,95882.00
2024-03-02T16:25:18.657Z,95891.00
2024-03-02T16:27:45.637Z,95894.00
2024-03-02T16:30:12.904Z,95887.00
2024-03-02T16:32:39.725Z,95893.00
2024-03-02T16:35:07.066Z,95888.00
2024-03-02T16:37:33.986Z,95900.00
2024-03-02T16:40:00.838Z,95904.00
2024-03-02T16:42:27.663Z,95902.00
2024-03-02T16:44:56.667Z,95902.00
2024-03-02T16:47:24.672Z,95899.00
2024-03-02T16:49:51.751Z,95909.00
2024-03-02T16:52:19.151Z,95915.00
2024-03-02T16:54:50.811Z,95909.00
2024-03-02T16:57:18.551Z,95913.00
2024-03-02T16:59:45.745Z,95923.00
2024-03-02T17:02:13.382Z,95924.00
2024-03-02T17:04:40.949Z,95919.00
2024-03-02T17:07:08.186Z,95921.00
2024-03-02T17:09:35.203Z,95916.00
2024-03-02T17:12:02.142Z,95916.00
2024-03-02T17:14:29.055Z,95921.00
2024-03-02T17:16:55.916Z,95917.00
2024-03-02T17:19:22.760Z,95918.00
2024-03-02T17:21:49.632Z,95921.00
2024-03-02T17:24:16.592Z,95920.00
2024-03-02T17:26:43.510Z,95929.00
2024-03-02T17:29:10.416Z,95922.00
2024-03-02T17:31:37.378Z,95925.00
2024-03-02T17:34:04.445Z,95933.00
2024-03-02T17:36:31.409Z,95920.00
2024-03-02T17:38:58.240Z,95917.00
2024-03-02T17:41:25.670Z,95920.00
2024-03-02T17:43:52.495Z,95926.00
2024-03-02T17:46:19.361Z,95923.00
2024-03-02T17:48:46.369Z,95925.00
2024-03-02T17:51:13.891Z,95925.00
2024-03-02T17:53:40.733Z,95932.00
2024-03-02T17:56:12.026Z,95933.00
2024-03-02T17:58:39.307Z,95928.00
2024-03-02T18:01:06.203Z,95933.00
2024-03-02T18:03:33.320Z,95930.00
2024-03-02T18:06:00.231Z,95934.00
2024-03-02T18:08:27.131Z,95931.00
2024-03-02T18:10:54.229Z,95936.00
2024-03-02T18:13:21.067Z,95925.00
2024-03-02T18:15:51.228Z,95927.00
2024-03-02T18:18:18.521Z,95925.00
2024-03-02T18:20:46.285Z,95921.00
2024-03-02T18:23:14.237Z,95919.00
2024-03-02T18:25:47.279Z,95919.00
2024-03-02T18:28:16.437Z,95919.00
2024-03-02T18:30:43.500Z,95918.00
2024-03-02T18:33:10.442Z,95917.00
2024-03-02T18:35:37.965Z,95912.00
2024-03-02T18:38:05.324Z,95910.00
2024-03-02T18:40:32.343Z,95907.00
2024-03-02T18:43:00.248Z,95903.00
2024-03-02T18:45:27.345Z,95900.00
2024-03-02T18:47:55.067Z,95902.00
2024-03-02T18:50:22.214Z,95908.00
2024-03-02T18:52:50.192Z,95904.00
2024-03-02T18:55:17.300Z,95915.00
2024-03-02T18:57:44.493Z,95907.00
2024-03-02T19:00:14.129Z,95904.00
2024-03-02T19:02:42.452Z,95899.00
2024-03-02T19:05:10.620Z,95895.00
2024-03-02T19:07:38.134Z,95881.00
2024-03-02T19:10:08.558Z,95887.00
2024-03-02T19:12:36.342Z,95885.00
2024-03-02T19:15:05.209Z,95887.00
2024-03-02T19:17:32.069Z,95880.00
2024-03-02T19:19:58.983Z,95879.00
2024-03-02T19:22:27.286Z,95877.00
2024-03-02T19:24:54.751Z,95886.00
2024-03-02T19:27:21.539Z,95873.00
2024-03-02T19:29:48.386Z,95879.00
2024-03-02T19:32:21.094Z,95879.00
2024-03-02T19:34:48.964Z,95873.00
2024-03-02T19:37:15.824Z,95874.00
2024-03-02T19:39:43.555Z,95870.00
2024-03-02T19:42:10.873Z,95872.00
2024-03-02T19:44:37.860Z,95877.00
2024-03-02T19:47:04.914Z,95869.00
2024-03-02T19:49:32.001Z,95871.00
2024-03-02T19:51:59.075Z,95870.00
2024-03-02T19:54:25.958Z,95868.00
2024-03-02T19:56:55.392Z,95866.00
2024-03-02T19:59:23.005Z,95865.00
2024-03-02T20:01:50.396Z,95866.00
2024-03-02T20:04:18.016Z,95859.00
2024-03-02T20:06:45.085Z,95862.00
2024-03-02T20:09:12.815Z,95857.00
2024-03-02T20:11:40.032Z,95856.00
2024-03-02T20:14:07.047Z,95855.00
2024-03-02T20:16:34.088Z,95856.00
2024-03-02T20:19:01.090Z,95862.00
2024-03-02T20:21:28.055Z,95859.00
2024-03-02T20:23:55.138Z,95856.00
2024-03-02T20:26:22.689Z,95844.00
2024-03-02T20:28:53.158Z,95860.00
2024-03-02T20:31:21.369Z,95856.00
2024-03-02T20:33:48.439Z,95860.00
2024-03-02T20:36:17.255Z,95852.00
2024-03-02T20:38:44.101Z,95859.00
2024-03-02T20:41:21.156Z,95852.00
2024-03-02T20:43:48.206Z,95849.00
2024-03-02T20:46:15.880Z,95846.00
2024-03-02T20:48:43.084Z,95851.00
2024-03-02T20:51:10.022Z,95850.00
2024-03-02T20:53:36.972Z,95846.00
2024-03-02T20:56:04.744Z,95834.00
2024-03-02T20:58:31.888Z,95830.00
2024-03-02T21:00:59.007Z,95832.00
2024-03-02T21:03:25.943Z,95837.00
2024-03-02T21:05:52.881Z,95836.00
2024-03-02T21:08:19.832Z,95836.00
2024-03-02T21:10:49.507Z,95835.00
2024-03-02T21:13:17.621Z,95829.00
2024-03-02T21:15:44.876Z,95825.00
2024-03-02T21:18:11.795Z,95831.00
2024-03-02T21:20:38.729Z,95825.00
2024-03-02T21:23:05.565Z,95828.00
2024-03-02T21:25:36.298Z,95831.00
2024-03-02T21:28:04.004Z,95826.00
2024-03-02T21:30:31.761Z,95827.00
2024-03-02T21:32:59.498Z,95815.00
2024-03-02T21:35:28.249Z,95814.00
2024-03-02T21:37:55.693Z,95818.00
2024-03-02T21:40:22.754Z,95821.00
2024-03-02T21:42:51.881Z,95824.00
2024-03-02T21:45:19.034Z,95813.00
2024-03-02T21:47:47.081Z,95812.00
2024-03-02T21:50:15.580Z,95803.00
2024-03-02T21:52:42.440Z,95808.00
2024-03-02T21:55:10.621Z,95800.00
2024-03-02T21:57:41.118Z,95803.00
2024-03-02T22:00:10.205Z,95804.00
2024-03-02T22:02:37.196Z,95792.00
2024-03-02T22:05:06.628Z,95800.00
2024-03-02T22:07:34.335Z,95807.00
2024-03-02T22:10:01.850Z,95801.00
2024-03-02T22:12:28.832Z,95796.00
2024-03-02T22:14:55.755Z,95793.00
2024-03-02T22:17:23.582Z,95804.00
2024-03-02T22:19:51.264Z,95787.00
2024-03-02T22:22:18.467Z,95787.00
2024-03-02T22:24:45.543Z,95784.00
2024-03-02T22:27:12.585Z,95780.00
2024-03-02T22:29:41.765Z,95776.00
2024-03-02T22:32:09.335Z,95777.00
2024-03-02T22:34:36.240Z,95781.00
2024-03-02T22:37:04.155Z,95784.00
2024-03-02T22:39:30.983Z,95779.00
2024-03-02T22:41:57.945Z,95776.00
2024-03-02T22:44:25.319Z,95784.00
2024-03-02T22:46:52.669Z,95779.00
2024-03-02T22:49:19.615Z,95776.00
2024-03-02T22:51:46.654Z,95775.00
2024-03-02T22:54:13.660Z,95761.00
2024-03-02T22:56:40.626Z,95767.00
2024-03-02T22:59:07.478Z,95770.00
2024-03-02T23:04:02.682Z,95776.00
2024-03-02T23:06:29.525Z,95775.00
2024-03-02T23:08:56.363Z,95769.00
2024-03-02T23:11:23.256Z,95774.00
2024-03-02T23:13:50.181Z,95765.00
2024-03-02T23:16:17.113Z,95758.00
2024-03-02T23:18:44.510Z,95753.00
2024-03-02T23:21:11.678Z,95742.00
2024-03-02T23:23:39.076Z,95744.00
2024-03-02T23:26:07.473Z,95742.00
2024-03-02T23:28:34.526Z,95742.00
2024-03-02T23:31:01.437Z,95731.00
2024-03-02T23:33:28.265Z,95734.00
2024-03-02T23:35:55.061Z,95726.00
2024-03-02T23:38:21.954Z,95730.00
2024-03-02T23:40:48.818Z,95730.00
2024-03-02T23:43:15.849Z,95725.00
2024-03-02T23:45:42.910Z,95725.00
2024-03-02T23:48:11.437Z,95726.00
2024-03-02T23:50:38.472Z,95716.00
2024-03-02T23:53:05.465Z,95726.00
2024-03-02T23:55:43.009Z,95722.00
2024-03-02T23:58:18.569Z,95733.00
